Time;durP1;ratioP1;P1;durP2;ratioP2;P2;SDS_P1;SDS_P2;PMS_P1;PMS_P2;Temp;Humidity;BMP_temperature;BMP_pressure;BME280_temperature;BME280_humidity;BME280_pressure;Samples;Min_cycle;Max_cycle;Signal;HPM_P1;HPM_P2
2023/04/13 00:00:01;;;;;;;;;;;;;;;17.63;39.13;99155.69;4970550;27;122704;-66
2023/04/13 00:02:27;;;;;;;;;;;;;;;17.62;39.08;99160.34;4969784;27;97938;-65
2023/04/13 00:04:53;;;;;;;;;;;;;;;17.61;39.01;99158.75;4974834;27;123207;-66
2023/04/13 00:07:21;;;;;;;;;;;;;;;17.60;39.04;99168.06;4973943;27;98485;-66
2023/04/13 00:09:49;;;;;;;;;;;;;;;17.61;39.07;99164.22;4972824;27;99349;-66
2023/04/13 00:12:15;;;;;;;;;;;;;;;17.61;39.20;99168.88;4975814;27;98273;-66
2023/04/13 00:14:42;;;;;;;;;;;;;;;17.59;39.09;99165.69;4975566;27;120754;-66
2023/04/13 00:17:08;;;;;;;;;;;;;;;17.59;39.06;99168.41;4971553;27;98163;-66
2023/04/13 00:19:35;;;;;;;;;;;;;;;17.58;39.20;99164.91;4953705;28;113929;-65
2023/04/13 00:22:02;;;;;;;;;;;;;;;17.57;39.22;99173.41;4973596;27;97723;-65
2023/04/13 00:24:28;;;;;;;;;;;;;;;17.56;39.02;99180.78;4971053;27;97890;-66
2023/04/13 00:26:55;;;;;;;;;;;;;;;17.55;39.22;99181.91;4971549;27;98174;-66
2023/04/13 00:29:22;;;;;;;;;;;;;;;17.55;39.17;99173.75;4974290;27;99062;-66
2023/04/13 00:31:47;;;;;;;;;;;;;;;17.54;39.10;99172.16;4970803;27;124545;-66
2023/04/13 00:34:13;;;;;;;;;;;;;;;17.54;39.08;99158.56;4972492;27;121142;-66
2023/04/13 00:36:39;;;;;;;;;;;;;;;17.54;39.22;99153.09;4973215;27;128072;-66
2023/04/13 00:39:06;;;;;;;;;;;;;;;17.52;39.32;99152.63;4970646;27;98591;-66
2023/04/13 00:41:32;;;;;;;;;;;;;;;17.51;39.27;99151.06;4972382;27;97858;-66
2023/04/13 00:43:57;;;;;;;;;;;;;;;17.51;39.22;99153.78;4971214;27;122939;-65
2023/04/13 00:46:23;;;;;;;;;;;;;;;17.50;39.17;99160.38;4943889;27;124977;-67
2023/04/13 00:48:49;;;;;;;;;;;;;;;17.49;39.20;99166.16;4972026;27;128260;-67
2023/04/13 00:51:15;;;;;;;;;;;;;;;17.49;39.29;99166.97;4970714;27;98989;-67
2023/04/13 00:53:42;;;;;;;;;;;;;;;17.47;39.08;99174.69;4956326;27;97943;-65
2023/04/13 00:56:08;;;;;;;;;;;;;;;17.46;39.30;99175.03;4970349;27;120584;-65
2023/04/13 00:58:34;;;;;;;;;;;;;;;17.44;39.28;99175.38;4971466;27;110491;-67
2023/04/13 01:01:00;;;;;;;;;;;;;;;17.45;39.20;99179.69;4969203;27;98165;-66
2023/04/13 01:03:26;;;;;;;;;;;;;;;17.42;39.29;99183.88;4972305;27;118815;-66
2023/04/13 01:06:23;;;;;;;;;;;;;;;17.41;39.15;99195.94;4971300;27;128892;-66
2023/04/13 01:08:58;;;;;;;;;;;;;;;17.41;39.17;99203.31;4937488;27;98535;-66
2023/04/13 01:11:31;;;;;;;;;;;;;;;17.40;39.39;99212.59;4943816;27;114122;-65
2023/04/13 01:14:12;;;;;;;;;;;;;;;17.39;39.37;99217.25;4971265;27;98562;-66
2023/04/13 01:16:47;;;;;;;;;;;;;;;17.38;39.39;99220.31;4972249;27;98865;-66
2023/04/13 01:19:39;;;;;;;;;;;;;;;17.36;39.27;99217.94;4949997;27;98375;-66
2023/04/13 01:22:06;;;;;;;;;;;;;;;17.35;39.25;99221.78;4970569;27;98532;-66
2023/04/13 01:24:52;;;;;;;;;;;;;;;17.34;39.33;99222.16;4953823;28;119883;-66
2023/04/13 01:27:41;;;;;;;;;;;;;;;17.33;39.26;99223.25;4939198;27;98828;-66
2023/04/13 01:30:09;;;;;;;;;;;;;;;17.31;39.45;99229.06;4960822;27;98730;-66
2023/04/13 01:32:45;;;;;;;;;;;;;;;17.30;39.39;99227.47;4970760;27;98208;-65
2023/04/13 01:35:11;;;;;;;;;;;;;;;17.30;39.35;99226.69;4972124;27;97917;-65
2023/04/13 01:37:37;;;;;;;;;;;;;;;17.29;39.26;99227.81;4971325;27;128576;-66
2023/04/13 01:40:10;;;;;;;;;;;;;;;17.27;39.24;99230.88;4970683;27;120375;-66
2023/04/13 01:42:36;;;;;;;;;;;;;;;17.26;39.41;99226.56;4959629;28;97929;-66
2023/04/13 01:45:04;;;;;;;;;;;;;;;17.25;39.32;99227.72;4970434;27;97858;-66
2023/04/13 01:47:30;;;;;;;;;;;;;;;17.24;39.52;99223.38;4972014;27;98258;-65
2023/04/13 01:50:03;;;;;;;;;;;;;;;17.25;39.48;99226.91;4954469;27;103868;-66
2023/04/13 01:52:29;;;;;;;;;;;;;;;17.23;39.38;99229.97;4937756;27;98067;-66
2023/04/13 01:54:55;;;;;;;;;;;;;;;17.22;39.48;99224.88;4958191;27;115907;-65
2023/04/13 01:57:22;;;;;;;;;;;;;;;17.21;39.35;99229.50;4969449;27;127167;-65
2023/04/13 01:59:47;;;;;;;;;;;;;;;17.20;39.44;99221.69;4968293;27;128023;-66
2023/04/13 02:02:15;;;;;;;;;;;;;;;17.18;39.41;99211.16;4968160;27;125518;-66
2023/04/13 02:04:41;;;;;;;;;;;;;;;17.17;39.54;99210.38;4971257;27;98069;-65
2023/04/13 02:07:07;;;;;;;;;;;;;;;17.17;39.42;99217.72;4970572;27;98438;-66
2023/04/13 02:09:34;;;;;;;;;;;;;;;17.14;39.48;99224.66;4970644;27;100099;-65
2023/04/13 02:12:00;;;;;;;;;;;;;;;17.13;39.49;99224.97;4971680;27;98370;-65
2023/04/13 02:14:26;;;;;;;;;;;;;;;17.11;39.53;99230.78;4968846;27;121988;-65
2023/04/13 02:16:52;;;;;;;;;;;;;;;17.10;39.36;99234.63;4970773;27;99040;-66
2023/04/13 02:19:19;;;;;;;;;;;;;;;17.09;39.49;99233.03;4971839;27;98861;-66
2023/04/13 02:21:44;;;;;;;;;;;;;;;17.08;39.43;99233.38;4952856;27;99226;-66
2023/04/13 02:24:10;;;;;;;;;;;;;;;17.05;39.58;99248.44;4970624;27;109369;-65
2023/04/13 02:26:36;;;;;;;;;;;;;;;17.05;39.50;99258.56;4951587;28;128480;-66
2023/04/13 02:29:02;;;;;;;;;;;;;;;17.03;39.47;99261.63;4969307;27;128206;-67
2023/04/13 02:31:30;;;;;;;;;;;;;;;17.03;39.45;99275.22;4968062;27;126025;-66
2023/04/13 02:33:57;;;;;;;;;;;;;;;17.02;39.59;99283.75;4968561;27;99332;-65
2023/04/13 02:36:23;;;;;;;;;;;;;;;16.99;39.53;99278.97;4968957;27;99046;-65
2023/04/13 02:38:49;;;;;;;;;;;;;;;16.98;39.33;99294.50;4972780;27;98612;-66
2023/04/13 02:41:21;;;;;;;;;;;;;;;16.97;39.56;99295.63;4966639;27;128306;-66
2023/04/13 02:43:51;;;;;;;;;;;;;;;16.97;39.55;99303.00;4969021;27;98120;-66
2023/04/13 02:46:16;;;;;;;;;;;;;;;16.94;39.51;99296.31;4973176;27;99023;-66
2023/04/13 02:48:42;;;;;;;;;;;;;;;16.93;39.23;99294.72;4968498;27;126941;-66
2023/04/13 02:51:08;;;;;;;;;;;;;;;16.95;39.69;99294.41;4968528;27;98675;-65
2023/04/13 02:53:35;;;;;;;;;;;;;;;17.00;39.42;99284.06;4971594;27;124439;-66
2023/04/13 02:56:01;;;;;;;;;;;;;;;17.08;39.48;99279.66;4972092;27;98180;-65
2023/04/13 02:58:30;;;;;;;;;;;;;;;17.12;39.58;99284.09;4966523;27;127144;-65
2023/04/13 03:00:56;;;;;;;;;;;;;;;17.16;39.61;99287.72;4968626;27;98502;-65
2023/04/13 03:03:22;;;;;;;;;;;;;;;17.18;39.60;99290.91;4954513;27;98075;-66
2023/04/13 03:05:49;;;;;;;;;;;;;;;17.21;39.57;99289.41;4968641;27;127204;-67
2023/04/13 03:08:16;;;;;;;;;;;;;;;17.24;39.47;99293.41;4969852;27;99063;-66
2023/04/13 03:10:43;;;;;;;;;;;;;;;17.25;39.46;99298.53;4952134;27;98013;-65
2023/04/13 03:13:09;;;;;;;;;;;;;;;17.26;39.56;99299.31;4951003;27;98031;-66
2023/04/13 03:15:35;;;;;;;;;;;;;;;17.27;39.65;99306.34;4952089;28;98392;-65
2023/04/13 03:18:02;;;;;;;;;;;;;;;17.27;39.59;99300.88;4968408;27;98452;-66
2023/04/13 03:20:28;;;;;;;;;;;;;;;17.27;39.60;99309.06;4967668;27;98736;-65
2023/04/13 03:22:55;;;;;;;;;;;;;;;17.27;39.70;99311.78;4970014;27;97898;-65
2023/04/13 03:25:21;;;;;;;;;;;;;;;17.27;39.70;99319.94;4972518;27;98261;-66
2023/04/13 03:27:47;;;;;;;;;;;;;;;17.26;39.58;99315.66;4936539;28;107361;-66
2023/04/13 03:30:13;;;;;;;;;;;;;;;17.23;39.68;99310.88;4932667;27;127255;-66
2023/04/13 03:32:39;;;;;;;;;;;;;;;17.24;39.61;99307.00;4956482;27;122055;-66
2023/04/13 03:35:05;;;;;;;;;;;;;;;17.21;39.69;99313.91;4967488;27;109241;-65
2023/04/13 03:37:39;;;;;;;;;;;;;;;17.20;39.51;99323.22;4968067;27;116538;-66
2023/04/13 03:40:08;;;;;;;;;;;;;;;17.19;39.66;99332.53;4943095;27;98014;-65
2023/04/13 03:42:34;;;;;;;;;;;;;;;17.17;39.70;99322.00;4953477;27;98405;-65
2023/04/13 03:45:00;;;;;;;;;;;;;;;17.16;39.61;99330.47;4968327;27;128715;-66
2023/04/13 03:47:26;;;;;;;;;;;;;;;17.14;39.65;99339.00;4969140;27;120265;-65
2023/04/13 03:49:52;;;;;;;;;;;;;;;17.13;39.70;99344.75;4966834;27;127557;-65
2023/04/13 03:52:18;;;;;;;;;;;;;;;17.11;39.70;99344.31;4967316;27;123249;-66
2023/04/13 03:54:44;;;;;;;;;;;;;;;17.09;39.69;99352.81;4969422;27;98755;-66
2023/04/13 03:57:10;;;;;;;;;;;;;;;17.07;39.77;99355.09;4969463;27;99835;-65
2023/04/13 03:59:36;;;;;;;;;;;;;;;17.06;39.67;99355.44;4949969;27;100190;-65
2023/04/13 04:02:02;;;;;;;;;;;;;;;17.04;39.77;99361.19;4971896;27;122605;-67
2023/04/13 04:04:28;;;;;;;;;;;;;;;17.03;39.83;99359.63;4962002;27;99054;-66
2023/04/13 04:06:54;;;;;;;;;;;;;;;17.01;39.70;99369.25;4972950;27;105970;-66
2023/04/13 04:09:20;;;;;;;;;;;;;;;17.00;39.80;99362.22;4972680;27;98257;-65
2023/04/13 04:11:46;;;;;;;;;;;;;;;16.98;39.77;99353.56;4972522;27;122918;-66
2023/04/13 04:14:12;;;;;;;;;;;;;;;16.95;39.69;99360.50;4972972;27;126751;-66
2023/04/13 04:16:38;;;;;;;;;;;;;;;16.94;39.78;99358.94;4973915;27;128025;-65
2023/04/13 04:19:04;;;;;;;;;;;;;;;16.91;39.80;99363.09;4950811;27;106529;-66
2023/04/13 04:21:33;;;;;;;;;;;;;;;16.90;39.80;99358.81;4971990;27;111316;-66
2023/04/13 04:23:59;;;;;;;;;;;;;;;16.89;39.66;99370.78;4972727;27;98496;-66
2023/04/13 04:26:26;;;;;;;;;;;;;;;16.88;39.77;99365.69;4972241;27;98248;-66
2023/04/13 04:28:52;;;;;;;;;;;;;;;16.86;39.71;99359.81;4972408;27;100468;-66
2023/04/13 04:31:18;;;;;;;;;;;;;;;16.86;39.77;99362.53;4966106;27;122626;-65
2023/04/13 04:33:43;;;;;;;;;;;;;;;16.84;39.63;99351.16;4947989;27;127772;-65
2023/04/13 04:36:12;;;;;;;;;;;;;;;16.83;39.71;99344.94;4964845;27;128783;-66
2023/04/13 04:38:39;;;;;;;;;;;;;;;16.81;39.70;99332.78;4970298;27;98309;-66
2023/04/13 04:41:07;;;;;;;;;;;;;;;16.81;39.84;99338.22;4965916;27;97942;-66
2023/04/13 04:43:34;;;;;;;;;;;;;;;16.80;39.74;99333.94;4969227;27;98530;-66
2023/04/13 04:46:03;;;;;;;;;;;;;;;16.80;39.71;99331.22;4970965;27;99383;-66
2023/04/13 04:48:30;;;;;;;;;;;;;;;16.80;39.73;99323.03;4966758;27;98104;-66
2023/04/13 04:50:56;;;;;;;;;;;;;;;16.80;39.74;99326.56;4967766;27;98152;-66
2023/04/13 04:53:22;;;;;;;;;;;;;;;16.80;39.58;99337.44;4967109;27;99356;-66
2023/04/13 04:55:49;;;;;;;;;;;;;;;16.82;39.79;99351.53;4966700;27;98597;-66
2023/04/13 04:58:15;;;;;;;;;;;;;;;16.82;39.72;99356.13;4950517;27;98542;-66
2023/04/13 05:00:41;;;;;;;;;;;;;;;16.82;39.59;99359.69;4968642;27;97908;-66
2023/04/13 05:03:07;;;;;;;;;;;;;;;16.84;39.58;99367.50;4967871;27;127950;-65
2023/04/13 05:05:34;;;;;;;;;;;;;;;16.85;39.63;99374.53;4966111;27;99380;-65
2023/04/13 05:08:00;;;;;;;;;;;;;;;16.84;39.64;99384.63;4968609;27;97960;-65
2023/04/13 05:10:28;;;;;;;;;;;;;;;16.84;39.61;99384.63;4967004;27;98026;-66
2023/04/13 05:12:55;;;;;;;;;;;;;;;16.84;39.62;99383.81;4968002;27;98428;-66
2023/04/13 05:15:21;;;;;;;;;;;;;;;16.84;39.70;99381.91;4949796;27;99315;-67
2023/04/13 05:17:49;;;;;;;;;;;;;;;16.83;39.67;99388.47;4966033;27;98273;-66
2023/04/13 05:20:16;;;;;;;;;;;;;;;16.83;39.70;99395.84;4970548;27;98148;-66
2023/04/13 05:22:42;;;;;;;;;;;;;;;16.81;39.59;99400.81;4952676;27;99112;-66
2023/04/13 05:25:08;;;;;;;;;;;;;;;16.80;39.73;99405.47;4965640;27;128235;-66
2023/04/13 05:27:34;;;;;;;;;;;;;;;16.81;39.62;99417.94;4947283;27;123071;-66
2023/04/13 05:30:00;;;;;;;;;;;;;;;16.82;39.68;99430.44;4966439;27;99082;-66
2023/04/13 05:32:26;;;;;;;;;;;;;;;16.85;39.52;99435.19;4945671;27;127525;-66
2023/04/13 05:34:52;;;;;;;;;;;;;;;16.90;39.55;99440.44;4968352;27;127558;-66
2023/04/13 05:37:18;;;;;;;;;;;;;;;16.94;39.56;99446.03;4965066;27;127781;-66
2023/04/13 05:39:44;;;;;;;;;;;;;;;17.02;39.48;99452.50;4966693;27;97932;-66
2023/04/13 05:42:10;;;;;;;;;;;;;;;17.11;39.43;99455.94;4969307;27;98685;-67
2023/04/13 05:44:36;;;;;;;;;;;;;;;17.18;39.25;99454.28;4967987;27;98844;-67
2023/04/13 05:47:02;;;;;;;;;;;;;;;17.23;39.32;99436.13;4966511;27;125447;-66
2023/04/13 05:49:28;;;;;;;;;;;;;;;17.23;39.26;99431.47;4966205;27;98197;-67
2023/04/13 05:51:54;;;;;;;;;;;;;;;17.24;39.32;99451.31;4964812;27;127821;-67
2023/04/13 05:54:20;;;;;;;;;;;;;;;17.22;39.34;99456.34;4967411;27;128912;-66
2023/04/13 05:56:46;;;;;;;;;;;;;;;17.24;39.46;99470.38;4967122;27;122848;-66
2023/04/13 05:59:13;;;;;;;;;;;;;;;17.24;39.43;99463.00;4965758;27;100524;-66
2023/04/13 06:01:39;;;;;;;;;;;;;;;17.25;39.39;99471.97;4962990;27;99260;-67
2023/04/13 06:04:04;;;;;;;;;;;;;;;17.25;39.45;99477.41;4965135;27;128258;-65
2023/04/13 06:06:31;;;;;;;;;;;;;;;17.24;39.47;99494.91;4966628;27;125355;-67
2023/04/13 06:08:57;;;;;;;;;;;;;;;17.24;39.44;99492.19;4966161;27;121356;-67
2023/04/13 06:11:24;;;;;;;;;;;;;;;17.24;39.42;99489.44;4942567;27;99394;-67
2023/04/13 06:13:50;;;;;;;;;;;;;;;17.26;39.45;99507.06;4967857;27;99264;-66
2023/04/13 06:16:17;;;;;;;;;;;;;;;17.27;39.48;99514.09;4964732;27;124396;-66
2023/04/13 06:18:43;;;;;;;;;;;;;;;17.30;39.44;99523.53;4966591;27;97893;-66
2023/04/13 06:21:09;;;;;;;;;;;;;;;17.30;39.33;99516.16;4962631;27;126970;-66
2023/04/13 06:23:36;;;;;;;;;;;;;;;17.31;39.43;99512.28;4965231;27;127987;-66
2023/04/13 06:26:02;;;;;;;;;;;;;;;17.30;39.44;99516.16;4965033;27;97978;-66
2023/04/13 06:28:29;;;;;;;;;;;;;;;17.30;39.59;99505.25;4966031;27;122604;-66
2023/04/13 06:30:55;;;;;;;;;;;;;;;17.29;39.62;99509.13;4949450;28;98739;-67
2023/04/13 06:33:22;;;;;;;;;;;;;;;17.30;39.43;99510.69;4965273;27;98841;-66
2023/04/13 06:35:48;;;;;;;;;;;;;;;17.31;39.38;99509.56;4965207;27;98230;-66
2023/04/13 06:38:14;;;;;;;;;;;;;;;17.32;39.56;99502.19;4964404;27;98152;-66
2023/04/13 06:40:40;;;;;;;;;;;;;;;17.33;39.45;99511.94;4965923;27;129266;-67
2023/04/13 06:43:06;;;;;;;;;;;;;;;17.33;39.51;99504.59;4966121;27;98797;-66
2023/04/13 06:45:32;;;;;;;;;;;;;;;17.33;39.45;99499.16;4964987;27;127825;-66
2023/04/13 06:47:59;;;;;;;;;;;;;;;17.34;39.49;99502.66;4966439;27;99309;-67
2023/04/13 06:50:25;;;;;;;;;;;;;;;17.34;39.58;99502.66;4948953;27;98870;-65
2023/04/13 06:52:51;;;;;;;;;;;;;;;17.35;39.44;99515.94;4944080;28;128873;-67
2023/04/13 06:55:17;;;;;;;;;;;;;;;17.38;39.59;99517.19;4937534;27;97993;-67
2023/04/13 06:57:43;;;;;;;;;;;;;;;17.38;39.39;99514.47;4964515;27;98958;-67
2023/04/13 07:00:09;;;;;;;;;;;;;;;17.40;39.46;99520.38;4965313;27;127456;-66
2023/04/13 07:02:35;;;;;;;;;;;;;;;17.41;39.58;99517.31;4947706;27;98406;-66
2023/04/13 07:05:01;;;;;;;;;;;;;;;17.43;39.44;99508.81;4963554;27;127303;-66
2023/04/13 07:07:27;;;;;;;;;;;;;;;17.45;39.38;99509.28;4965584;27;98003;-67
2023/04/13 07:09:53;;;;;;;;;;;;;;;17.48;39.43;99514.03;4965398;27;128643;-66
2023/04/13 07:12:19;;;;;;;;;;;;;;;17.49;39.49;99506.66;4963596;27;128292;-66
2023/04/13 07:14:45;;;;;;;;;;;;;;;17.49;39.34;99502.03;4965677;27;98451;-66
2023/04/13 07:17:12;;;;;;;;;;;;;;;17.52;39.38;99509.50;4964836;27;98061;-66
2023/04/13 07:19:37;;;;;;;;;;;;;;;17.60;39.40;99516.78;4965040;27;98989;-67
2023/04/13 07:22:03;;;;;;;;;;;;;;;17.72;39.35;99523.41;4969038;27;99048;-67
2023/04/13 07:24:29;;;;;;;;;;;;;;;17.80;39.10;99517.91;4967598;27;125003;-66
2023/04/13 07:26:56;;;;;;;;;;;;;;;17.88;39.09;99514.28;4946869;28;119345;-67
2023/04/13 07:29:25;;;;;;;;;;;;;;;17.98;39.10;99520.44;4945155;27;98304;-67
2023/04/13 07:31:51;;;;;;;;;;;;;;;18.08;39.15;99520.78;4964320;27;98514;-67
2023/04/13 07:34:17;;;;;;;;;;;;;;;18.22;39.09;99527.81;4961980;27;127628;-67
2023/04/13 07:36:43;;;;;;;;;;;;;;;18.38;38.76;99534.19;4964379;27;121605;-67
2023/04/13 07:39:09;;;;;;;;;;;;;;;18.52;38.78;99531.91;4964872;27;98862;-66
2023/04/13 07:41:35;;;;;;;;;;;;;;;18.63;38.75;99530.31;4970063;27;98397;-67
2023/04/13 07:44:03;;;;;;;;;;;;;;;18.71;38.56;99533.28;4969037;27;99647;-68
2023/04/13 07:46:29;;;;;;;;;;;;;;;18.79;38.79;99543.28;4967504;27;103480;-67
2023/04/13 07:48:55;;;;;;;;;;;;;;;18.86;38.91;99549.75;4968053;27;99098;-67
2023/04/13 07:51:21;;;;;;;;;;;;;;;18.95;38.73;99552.34;4967946;27;98611;-67
2023/04/13 07:53:47;;;;;;;;;;;;;;;19.01;38.82;99555.63;4965950;27;98238;-67
2023/04/13 07:56:13;;;;;;;;;;;;;;;18.98;38.75;99556.31;4967020;27;112138;-66
2023/04/13 07:58:39;;;;;;;;;;;;;;;18.95;38.71;99555.06;4967997;27;125582;-67
2023/04/13 08:01:05;;;;;;;;;;;;;;;18.94;39.02;99558.13;4969428;27;98591;-67
2023/04/13 08:03:32;;;;;;;;;;;;;;;18.92;39.01;99563.16;4970248;27;98171;-67
2023/04/13 08:05:58;;;;;;;;;;;;;;;18.91;39.01;99567.03;4969145;27;97826;-68
2023/04/13 08:08:25;;;;;;;;;;;;;;;18.89;39.10;99570.88;4968382;27;99826;-67
2023/04/13 08:10:51;;;;;;;;;;;;;;;18.93;39.01;99570.19;4968720;27;98865;-67
2023/04/13 08:13:17;;;;;;;;;;;;;;;18.98;39.03;99578.16;4967827;27;123476;-68
2023/04/13 08:15:43;;;;;;;;;;;;;;;19.09;38.90;99590.19;4968552;27;97867;-68
2023/04/13 08:18:09;;;;;;;;;;;;;;;19.23;38.85;99578.91;4947672;28;124949;-68
2023/04/13 08:20:35;;;;;;;;;;;;;;;19.41;38.68;99590.31;4970132;27;98191;-67
2023/04/13 08:23:02;;;;;;;;;;;;;;;19.68;38.16;99588.75;4967498;27;98897;-67
2023/04/13 08:25:28;;;;;;;;;;;;;;;20.09;38.02;99590.25;4968619;27;97952;-67
2023/04/13 08:27:54;;;;;;;;;;;;;;;20.52;37.83;99588.59;4966307;27;121940;-68
2023/04/13 08:30:20;;;;;;;;;;;;;;;21.06;37.41;99593.31;4965929;27;98332;-67
2023/04/13 08:32:46;;;;;;;;;;;;;;;21.63;37.07;99591.78;4967240;27;126335;-67
2023/04/13 08:35:12;;;;;;;;;;;;;;;21.95;37.02;99599.81;4964085;27;98885;-68
2023/04/13 08:37:38;;;;;;;;;;;;;;;21.85;37.35;99589.44;4965428;27;98176;-67
2023/04/13 08:40:06;;;;;;;;;;;;;;;21.71;37.62;99600.94;4969899;27;128827;-67
2023/04/13 08:42:33;;;;;;;;;;;;;;;21.56;37.89;99597.91;4970022;27;98521;-68
2023/04/13 08:44:59;;;;;;;;;;;;;;;21.41;38.12;99608.97;4951585;27;98060;-67
2023/04/13 08:47:26;;;;;;;;;;;;;;;21.27;38.21;99596.53;4949692;27;101310;-68
2023/04/13 08:49:55;;;;;;;;;;;;;;;21.19;38.33;99603.00;4954771;27;99155;-68
2023/04/13 08:52:21;;;;;;;;;;;;;;;21.13;38.51;99598.97;4955296;27;122528;-67
2023/04/13 08:54:47;;;;;;;;;;;;;;;21.09;38.51;99607.09;4969603;27;102282;-67
2023/04/13 08:57:13;;;;;;;;;;;;;;;21.08;38.64;99604.72;4968511;27;99927;-68
2023/04/13 08:59:40;;;;;;;;;;;;;;;21.06;38.48;99613.31;4932387;28;98509;-67
2023/04/13 09:02:07;;;;;;;;;;;;;;;21.07;38.58;99611.38;4949355;27;99094;-68
2023/04/13 09:04:34;;;;;;;;;;;;;;;21.12;38.53;99615.78;4932252;27;98169;-67
2023/04/13 09:07:00;;;;;;;;;;;;;;;21.16;38.43;99609.22;4957058;27;103521;-67
2023/04/13 09:09:26;;;;;;;;;;;;;;;21.20;38.40;99603.81;4941417;28;127970;-67
2023/04/13 09:11:52;;;;;;;;;;;;;;;21.24;38.49;99610.94;4915154;28;100130;-68
2023/04/13 09:14:21;;;;;;;;;;;;;;;21.28;38.35;99608.28;4943885;28;119636;-67
2023/04/13 09:16:47;;;;;;;;;;;;;;;21.37;38.36;99606.16;4947411;28;99698;-68
2023/04/13 09:19:12;;;;;;;;;;;;;;;21.47;38.18;99613.00;4945904;28;98744;-67
2023/04/13 09:21:41;;;;;;;;;;;;;;;21.59;38.26;99606.59;4948522;28;100911;-67
2023/04/13 09:24:07;;;;;;;;;;;;;;;21.74;38.12;99622.16;4929771;28;98244;-68
2023/04/13 09:26:43;;;;;;;;;;;;;;;21.85;37.96;99614.13;4947031;28;98449;-69
2023/04/13 09:29:19;;;;;;;;;;;;;;;21.91;38.07;99607.97;4949003;28;98833;-68
2023/04/13 09:31:45;;;;;;;;;;;;;;;21.98;37.96;99613.59;4948322;28;112899;-68
2023/04/13 09:34:11;;;;;;;;;;;;;;;21.99;38.23;99615.19;4948710;28;98944;-68
2023/04/13 09:36:37;;;;;;;;;;;;;;;21.96;38.25;99618.66;4949561;28;99125;-68
2023/04/13 09:39:04;;;;;;;;;;;;;;;21.95;38.24;99627.25;4919840;28;98729;-68
2023/04/13 09:41:34;;;;;;;;;;;;;;;21.90;38.40;99639.31;4928719;28;98573;-68
2023/04/13 09:44:00;;;;;;;;;;;;;;;21.85;38.49;99636.88;4947586;28;98158;-68
2023/04/13 09:46:26;;;;;;;;;;;;;;;21.77;38.53;99622.25;4929493;28;99804;-68
2023/04/13 09:49:02;;;;;;;;;;;;;;;21.75;38.53;99621.00;4947134;28;98722;-68
2023/04/13 09:51:38;;;;;;;;;;;;;;;21.77;38.43;99626.91;4936298;28;98382;-68
2023/04/13 09:54:07;;;;;;;;;;;;;;;21.79;38.40;99630.88;4925582;28;98187;-68
2023/04/13 09:56:45;;;;;;;;;;;;;;;21.81;38.31;99638.72;4945699;28;98783;-68
2023/04/13 09:59:12;;;;;;;;;;;;;;;21.85;38.43;99636.88;4945302;28;99550;-68
2023/04/13 10:01:39;;;;;;;;;;;;;;;21.92;38.36;99645.22;4947600;28;98848;-69
2023/04/13 10:04:06;;;;;;;;;;;;;;;21.90;38.35;99647.56;4949585;28;98141;-68
2023/04/13 10:06:38;;;;;;;;;;;;;;;21.87;38.43;99647.47;4949061;28;98715;-69
2023/04/13 10:09:04;;;;;;;;;;;;;;;21.79;38.51;99644.59;4947143;27;100788;-68
2023/04/13 10:11:31;;;;;;;;;;;;;;;21.72;38.76;99651.88;4971940;27;98135;-68
2023/04/13 10:13:58;;;;;;;;;;;;;;;21.65;38.75;99644.31;4945642;28;98142;-68
2023/04/13 10:16:35;;;;;;;;;;;;;;;21.58;38.72;99641.44;4950568;27;98576;-66
2023/04/13 10:19:11;;;;;;;;;;;;;;;21.52;38.82;99637.38;4968889;27;98505;-66
2023/04/13 10:21:41;;;;;;;;;;;;;;;21.46;38.86;99649.81;4955830;27;98771;-65
2023/04/13 10:24:12;;;;;;;;;;;;;;;21.37;38.91;99647.25;4951127;27;116651;-66
2023/04/13 10:26:38;;;;;;;;;;;;;;;21.31;39.01;99645.94;4955095;27;98362;-66
2023/04/13 10:29:05;;;;;;;;;;;;;;;21.28;39.15;99646.66;4948896;28;99346;-69
2023/04/13 10:31:38;;;;;;;;;;;;;;;21.25;38.95;99645.41;4970050;27;99428;-69
2023/04/13 10:34:05;;;;;;;;;;;;;;;21.28;38.90;99641.97;4965707;27;98143;-68
2023/04/13 10:36:41;;;;;;;;;;;;;;;21.36;38.87;99642.13;4968657;28;99691;-69
2023/04/13 10:39:08;;;;;;;;;;;;;;;21.47;38.68;99630.25;4965020;27;98281;-68
2023/04/13 10:41:35;;;;;;;;;;;;;;;21.63;38.52;99629.38;4953823;27;127518;-68
2023/04/13 10:44:03;;;;;;;;;;;;;;;21.78;38.33;99636.75;4968436;27;100899;-68
2023/04/13 10:46:29;;;;;;;;;;;;;;;22.02;38.18;99632.88;4965641;27;98291;-69
2023/04/13 10:48:57;;;;;;;;;;;;;;;22.34;38.09;99638.97;4967748;27;98977;-68
2023/04/13 10:51:24;;;;;;;;;;;;;;;22.63;37.77;99644.91;4948680;27;98846;-68
2023/04/13 10:53:51;;;;;;;;;;;;;;;23.00;37.47;99642.38;4966297;27;97866;-68
2023/04/13 10:56:17;;;;;;;;;;;;;;;23.17;37.46;99654.78;4965817;27;99618;-69
2023/04/13 10:58:50;;;;;;;;;;;;;;;23.30;37.40;99658.88;4969894;27;97995;-68
2023/04/13 11:01:16;;;;;;;;;;;;;;;23.39;37.73;99659.41;4968977;27;99388;-68
2023/04/13 11:03:43;;;;;;;;;;;;;;;23.51;37.41;99659.19;4949435;28;121973;-68
2023/04/13 11:06:09;;;;;;;;;;;;;;;23.71;37.54;99662.59;4967079;27;98726;-69
2023/04/13 11:08:38;;;;;;;;;;;;;;;23.72;37.33;99666.94;4931337;28;98431;-68
2023/04/13 11:11:04;;;;;;;;;;;;;;;23.59;37.88;99675.78;4965658;27;99656;-68
2023/04/13 11:13:30;;;;;;;;;;;;;;;23.53;38.04;99665.09;4967785;27;123752;-68
2023/04/13 11:16:01;;;;;;;;;;;;;;;23.56;37.93;99665.50;4962313;27;120906;-69
2023/04/13 11:18:27;;;;;;;;;;;;;;;23.51;37.95;99667.44;4968312;27;98246;-68
2023/04/13 11:20:53;;;;;;;;;;;;;;;23.64;38.14;99667.19;4967769;27;98543;-69
2023/04/13 11:23:22;;;;;;;;;;;;;;;23.75;37.98;99668.94;4964900;27;97975;-69
2023/04/13 11:25:56;;;;;;;;;;;;;;;23.79;37.91;99668.19;4967682;27;98178;-69
2023/04/13 11:28:23;;;;;;;;;;;;;;;23.94;37.90;99662.47;4964536;27;99180;-68
2023/04/13 11:30:53;;;;;;;;;;;;;;;24.21;37.39;99654.88;4965870;27;98433;-69
2023/04/13 11:33:26;;;;;;;;;;;;;;;24.72;36.93;99661.66;4965996;27;97933;-68
2023/04/13 11:35:56;;;;;;;;;;;;;;;24.60;37.54;99667.44;4965881;27;116410;-68
2023/04/13 11:38:22;;;;;;;;;;;;;;;24.63;37.56;99655.66;4965561;27;124818;-69
2023/04/13 11:40:48;;;;;;;;;;;;;;;24.65;37.57;99662.38;4947308;27;114022;-69
2023/04/13 11:43:16;;;;;;;;;;;;;;;24.68;37.73;99658.06;4951599;27;98044;-69
2023/04/13 11:45:42;;;;;;;;;;;;;;;24.81;37.37;99659.34;4966374;27;98971;-69
2023/04/13 11:48:08;;;;;;;;;;;;;;;25.24;37.08;99665.19;4966109;27;99039;-69
2023/04/13 11:50:34;;;;;;;;;;;;;;;25.71;36.74;99655.16;4954237;27;98419;-69
2023/04/13 11:53:01;;;;;;;;;;;;;;;26.32;36.23;99649.78;4947125;27;113932;-69
2023/04/13 11:55:27;;;;;;;;;;;;;;;27.64;34.94;99664.22;4943005;27;100046;-69
2023/04/13 11:57:53;;;;;;;;;;;;;;;27.92;35.28;99661.75;4947056;27;128801;-70
2023/04/13 12:00:24;;;;;;;;;;;;;;;28.84;34.44;99661.09;4961844;27;98100;-70
2023/04/13 12:02:51;;;;;;;;;;;;;;;29.45;34.58;99657.72;4960728;27;98254;-69
2023/04/13 12:05:24;;;;;;;;;;;;;;;29.04;35.00;99657.75;4965734;27;99876;-67
2023/04/13 12:07:52;;;;;;;;;;;;;;;28.86;35.84;99655.94;4963804;27;99354;-67
2023/04/13 12:10:28;;;;;;;;;;;;;;;29.08;35.63;99658.50;4951462;27;98545;-67
2023/04/13 12:13:02;;;;;;;;;;;;;;;28.77;36.21;99649.31;4964292;27;98198;-67
2023/04/13 12:15:28;;;;;;;;;;;;;;;28.92;36.16;99642.41;4951693;27;99101;-67
2023/04/13 12:18:00;;;;;;;;;;;;;;;28.78;36.38;99643.34;4966077;27;98311;-67
2023/04/13 12:20:38;;;;;;;;;;;;;;;29.90;34.83;99634.53;4967306;27;99404;-68
2023/04/13 12:23:20;;;;;;;;;;;;;;;30.50;34.71;99632.88;4945978;27;98092;-69
2023/04/13 12:25:57;;;;;;;;;;;;;;;32.03;33.47;99634.69;4864291;27;9999659;-68
2023/04/13 12:28:33;;;;;;;;;;;;;;;32.17;33.73;99645.50;4430585;27;10001068;-69
2023/04/13 12:31:09;;;;;;;;;;;;;;;31.48;35.03;99645.41;4951846;27;104618;-68
2023/04/13 12:33:35;;;;;;;;;;;;;;;31.04;35.39;99641.06;4968975;27;98143;-69
2023/04/13 12:36:01;;;;;;;;;;;;;;;30.50;36.12;99644.78;4966740;27;98282;-68
2023/04/13 12:38:27;;;;;;;;;;;;;;;30.00;36.77;99639.97;4967335;27;99436;-68
2023/04/13 12:40:56;;;;;;;;;;;;;;;29.67;37.18;99636.06;4965658;27;129073;-68
2023/04/13 12:43:23;;;;;;;;;;;;;;;29.47;37.16;99627.53;4958011;27;116665;-68